»·PEaware :: N587EF KVCV-KBFL

N587EF :: KVCV-KBFL

FLIGHT INFORMATION

Flight Status: Arrived
Operator: Privately registered:
United States
More flights under this callsign
Pilot: Eloy F. (29609)
Aircraft: BEECH AIRCRAFT DEBONAIR BONANZA
(BE33)
More flights by this aircraft type
Origin: KVCV Socal Logistics
United States
Destination: KBFL Meadows
United States
More flights between these airports :: More routes between these airports
Route: +
File this flight plan on PilotEdge
Remarks:
Altitude:
(Current/Filed)
6,500ft
Speed:
(Current/Filed)
0kts
Departed: 28-Sep-20 12:57 PM
Arrived: 28-Sep-20 01:43 PM
Distance/Time
Traveled:
96nm/0:45
Distance/Time
To Go:
Arrived

Flight Plot

Page will automatically refresh every two minutes.


Map Options




Map Legend


Flown Route
Filed Route
Departure Airport
Arrival Airport
Navaid (VOR, NDB)
Fix

Horizontal Profiles

Position Reports

Time Latitude Longitude Heading Altitude Ground
Speed
28-Sep-20 12:47 34.588333 -117.376341 314 2874ft 0kts
28-Sep-20 12:48 34.588333 -117.376341 314 2874ft 0kts
28-Sep-20 12:49 34.588339 -117.376349 313 2874ft 0kts
28-Sep-20 12:50 34.588446 -117.378069 225 2873ft 10kts
28-Sep-20 12:51 34.586438 -117.380448 224 2877ft 10kts
28-Sep-20 12:52 34.583929 -117.383475 227 2881ft 12kts
28-Sep-20 12:53 34.581188 -117.384273 181 2885ft 7kts
28-Sep-20 12:54 34.580458 -117.385064 270 2885ft 0kts
28-Sep-20 12:55 34.580458 -117.385078 269 2885ft 0kts
28-Sep-20 12:56 34.582281 -117.386403 0 2883ft 52kts
28-Sep-20 12:57 34.605222 -117.387157 355 3676ft 85kts
28-Sep-20 12:58 34.605499 -117.414669 280 4453ft 105kts
28-Sep-20 12:59 34.611368 -117.450636 290 5227ft 110kts
28-Sep-20 13:00 34.617784 -117.486559 289 5977ft 113kts
28-Sep-20 13:01 34.625604 -117.524142 291 6530ft 130kts
28-Sep-20 13:02 34.639294 -117.571406 290 6524ft 160kts
28-Sep-20 13:03 34.651623 -117.625896 288 6516ft 172kts
28-Sep-20 13:04 34.664205 -117.683058 287 6501ft 176kts
28-Sep-20 13:05 34.676994 -117.741051 287 6487ft 178kts
28-Sep-20 13:06 34.689891 -117.799574 287 6471ft 180kts
28-Sep-20 13:07 34.702800 -117.858314 286 6459ft 180kts
28-Sep-20 13:08 34.715739 -117.917320 287 6464ft 180kts
28-Sep-20 13:09 34.728667 -117.976415 286 6472ft 180kts
28-Sep-20 13:10 34.741521 -118.035506 286 6479ft 181kts
28-Sep-20 13:11 34.754457 -118.094963 287 6483ft 182kts
28-Sep-20 13:12 34.767397 -118.154572 286 6495ft 182kts
28-Sep-20 13:13 34.780331 -118.214350 286 6500ft 183kts
28-Sep-20 13:14 34.793200 -118.274433 283 6482ft 183kts
28-Sep-20 13:15 34.801973 -118.335721 280 6482ft 183kts
28-Sep-20 13:16 34.810410 -118.396639 280 6498ft 183kts
28-Sep-20 13:17 34.818890 -118.457770 279 6512ft 183kts
28-Sep-20 13:18 34.827310 -118.519006 279 6530ft 184kts
28-Sep-20 13:20 34.835794 -118.580415 279 6553ft 184kts
28-Sep-20 13:21 34.846470 -118.641509 299 6555ft 185kts
28-Sep-20 13:22 34.870555 -118.696929 297 6568ft 184kts
28-Sep-20 13:23 34.893469 -118.750386 297 6571ft 172kts
28-Sep-20 13:24 34.914891 -118.800049 298 6566ft 157kts
28-Sep-20 13:25 34.935367 -118.846996 301 6189ft 157kts
28-Sep-20 13:26 34.955238 -118.893042 302 5680ft 150kts
28-Sep-20 13:27 34.983168 -118.922577 348 5159ft 131kts
28-Sep-20 13:28 35.017912 -118.932838 349 4643ft 126kts
28-Sep-20 13:29 35.051655 -118.942829 348 4112ft 125kts
28-Sep-20 13:30 35.086001 -118.953058 346 3511ft 128kts
28-Sep-20 13:31 35.120951 -118.963538 345 2915ft 130kts
28-Sep-20 13:32 35.155496 -118.973971 344 2538ft 116kts
28-Sep-20 13:33 35.185420 -118.983215 345 2546ft 124kts
28-Sep-20 13:34 35.223108 -118.994067 345 2403ft 149kts
28-Sep-20 13:35 35.262979 -119.005984 344 2041ft 142kts
28-Sep-20 13:36 35.299242 -119.017146 344 1541ft 127kts
28-Sep-20 13:37 35.330507 -119.027097 343 1518ft 105kts
28-Sep-20 13:37 35.353353 -119.029466 4 1534ft 105kts
28-Sep-20 13:39 35.385525 -119.015927 16 1523ft 94kts
28-Sep-20 13:40 35.408502 -119.024750 316 1031ft 95kts
28-Sep-20 13:41 35.422884 -119.043070 315 747ft 66kts
28-Sep-20 13:42 35.435766 -119.058454 317 492ft 49kts
28-Sep-20 13:42 35.440575 -119.063004 44 503ft 2kts
28-Sep-20 13:44 35.440607 -119.062966 44 503ft 1kts
28-Sep-20 13:45 35.439088 -119.060271 135 500ft 18kts
28-Sep-20 13:45 35.435373 -119.055776 135 496ft 26kts
28-Sep-20 13:47 35.429907 -119.049162 136 493ft 14kts
28-Sep-20 13:47 35.430069 -119.048003 65 498ft 3kts
28-Sep-20 13:48 35.431177 -119.048228 348 504ft 3kts
28-Sep-20 13:49 35.431671 -119.048556 210 504ft 0kts
28-Sep-20 13:50 35.431671 -119.048556 210 504ft 0kts
28-Sep-20 13:51 35.431671 -119.048556 210 504ft 0kts
28-Sep-20 13:52 35.431671 -119.048556 210 504ft 0kts
28-Sep-20 13:53 35.431671 -119.048556 210 504ft 0kts
28-Sep-20 13:54 35.431671 -119.048556 210 504ft 0kts
28-Sep-20 13:55 35.431671 -119.048556 210 504ft 0kts
28-Sep-20 13:56 35.431671 -119.048556 210 504ft 0kts

Navigation Log

Ident Type
Flight plan parsing failed, navigation log unavailable